Date,TemperatureHighF,TemperatureAvgF,TemperatureLowF,DewpointHighF,DewpointAvgF,DewpointLowF,HumidityHigh,HumidityAvg,HumidityLow,PressureMaxIn,PressureMinIn,WindSpeedMaxMPH,WindSpeedAvgMPH,GustSpeedMaxMPH,PrecipitationSumIn
2013-8-1,88.0,83.6,81.2,79.0,77.3,76.0,88,81,70,29.94,29.83,20,7,25,0.00
2013-8-2,87.8,84.0,81.5,79.0,77.9,77.0,88,82,73,29.98,29.87,14,7,22,0.00
2013-8-3,87.1,82.8,78.3,81.0,78.9,76.0,95,88,80,29.99,29.86,15,6,21,0.50
2013-8-4,88.1,83.8,81.2,80.0,78.6,77.0,91,84,75,29.97,29.82,13,6,19,0.00
2013-8-5,88.1,83.5,80.8,79.0,78.1,77.0,92,84,70,29.96,29.82,13,5,16,0.00
2013-8-6,88.4,83.8,80.6,79.0,76.9,74.0,90,80,65,29.92,29.79,14,6,17,0.00
2013-8-7,88.4,84.0,80.7,79.0,77.2,76.0,87,80,69,29.88,29.75,15,6,18,0.00
2013-8-8,92.9,84.6,79.0,80.0,77.4,75.0,93,80,61,29.83,29.70,9,3,17,0.00
2013-8-9,87.4,83.4,80.9,79.0,77.4,76.0,89,82,73,29.86,29.76,16,6,22,0.00
2013-8-10,87.9,83.7,80.4,78.0,76.9,75.0,88,80,68,29.88,29.76,14,6,19,0.00
2013-8-11,88.9,83.0,77.8,78.0,76.9,74.0,94,82,69,29.88,29.78,14,5,19,0.09
2013-8-12,86.4,82.2,76.4,79.0,77.2,74.0,94,85,74,29.90,29.79,14,6,19,0.09
2013-8-13,88.0,83.9,81.3,78.0,77.1,76.0,86,80,70,29.91,29.81,16,7,22,0.00
2013-8-14,88.8,83.9,80.5,80.0,77.7,76.0,90,82,70,29.91,29.78,15,8,27,0.04
2013-8-15,88.6,84.0,81.7,79.0,77.6,77.0,86,81,70,29.91,29.81,16,8,24,0.00
2013-8-16,89.3,83.9,80.2,78.0,75.6,72.0,87,77,57,29.90,29.79,13,6,18,0.00
2013-8-17,88.6,83.8,80.5,78.0,76.4,75.0,86,78,66,29.90,29.79,17,7,20,0.00
2013-8-18,90.1,84.8,80.9,78.0,76.7,75.0,85,77,63,29.91,29.79,13,6,18,0.00
2013-8-19,89.9,84.3,78.8,79.0,77.1,75.0,92,79,64,29.87,29.74,11,4,18,0.00
2013-8-20,91.7,85.4,81.9,80.0,77.9,76.0,86,78,61,29.89,29.75,14,6,19,0.00
2013-8-21,89.8,84.9,80.5,79.0,77.2,75.0,91,78,66,29.91,29.80,17,8,24,0.06
2013-8-22,89.4,84.8,81.9,80.0,77.9,77.0,86,80,69,29.88,29.76,16,7,19,0.00
2013-8-23,89.7,85.2,82.3,78.0,77.0,76.0,85,77,67,29.88,29.77,15,8,23,0.00
2013-8-24,89.7,84.8,79.9,78.0,76.3,73.0,84,76,66,29.92,29.83,14,6,23,0.00
2013-8-25,88.9,84.3,80.6,79.0,77.5,74.0,86,80,70,29.91,29.80,13,6,18,0.00
2013-8-26,89.4,84.7,81.5,79.0,77.4,76.0,85,78,67,29.91,29.78,16,6,18,0.00
2013-8-27,90.2,84.7,80.7,79.0,77.3,76.0,87,79,63,29.91,29.78,12,4,18,0.00
2013-8-28,89.8,84.7,81.5,80.0,77.9,77.0,87,80,68,29.92,29.81,14,6,18,0.00
2013-8-29,91.6,85.8,81.9,80.0,76.8,73.0,87,75,60,29.91,29.79,11,5,19,0.00
2013-8-30,90.7,85.8,82.4,79.0,76.3,72.0,87,74,56,29.92,29.80,13,5,17,0.00
2013-8-31,91.9,84.2,76.8,79.0,77.1,75.0,94,80,58,29.91,29.79,13,3,15,0.03